Time;durP1;ratioP1;P1;durP2;ratioP2;P2;SDS_P1;SDS_P2;PMS_P1;PMS_P2;Temp;Humidity;BMP_temperature;BMP_pressure;BME280_temperature;BME280_humidity;BME280_pressure;Samples;Min_cycle;Max_cycle;Signal;HPM_P1;HPM_P2
2024/01/11 00:01:56;;;;;;;48.55;24.10;;;;;;;-1.03;80.41;98991.50;5201173;22;20176;-86
2024/01/11 00:03:59;;;;;;;42.20;21.83;;;;;;;-1.02;81.28;98998.34;5227739;22;20179;-85
2024/01/11 00:06:01;;;;;;;46.50;24.98;;;;;;;-0.98;81.30;98997.44;5202041;22;20575;-84
2024/01/11 00:08:05;;;;;;;41.95;23.17;;;;;;;-0.93;80.79;99003.38;5201568;22;20172;-85
2024/01/11 00:10:09;;;;;;;51.08;25.63;;;;;;;-0.98;80.66;98999.16;5176747;22;20183;-85
2024/01/11 00:12:14;;;;;;;46.78;24.00;;;;;;;-1.06;80.83;99000.94;5229780;22;20200;-85
2024/01/11 00:14:16;;;;;;;46.70;23.75;;;;;;;-1.08;81.12;98998.38;5228560;22;20742;-85
2024/01/11 00:16:19;;;;;;;47.65;22.88;;;;;;;-1.13;80.33;99000.09;5205024;22;20172;-85
2024/01/11 00:18:22;;;;;;;46.10;23.92;;;;;;;-1.14;80.17;98993.31;5230196;22;20196;-85
2024/01/11 00:20:25;;;;;;;42.17;22.02;;;;;;;-1.15;80.46;98993.34;5176521;22;20187;-85
2024/01/11 00:22:28;;;;;;;48.50;22.88;;;;;;;-1.13;80.33;98997.56;5205792;22;20180;-85
2024/01/11 00:24:32;;;;;;;50.80;27.58;;;;;;;-1.17;80.34;98990.78;5203479;22;20191;-85
2024/01/11 00:26:42;;;;;;;52.78;25.40;;;;;;;-1.22;80.56;98997.66;5203961;22;20237;-85
2024/01/11 00:28:46;;;;;;;48.75;25.25;;;;;;;-1.20;80.70;99001.03;5202178;22;20211;-85
2024/01/11 00:30:50;;;;;;;48.25;23.98;;;;;;;-1.30;80.98;98986.63;5179627;22;20173;-86
2024/01/11 00:32:52;;;;;;;47.47;22.35;;;;;;;-1.36;80.49;98994.34;5229084;22;20631;-85
2024/01/11 00:34:55;;;;;;;46.70;23.52;;;;;;;-1.34;81.23;99000.31;5203877;22;20962;-85
2024/01/11 00:36:57;;;;;;;46.90;22.98;;;;;;;-1.34;81.33;98992.63;5202793;22;20176;-85
2024/01/11 00:39:01;;;;;;;46.45;24.25;;;;;;;-1.33;81.46;99009.66;5177147;22;20279;-85
2024/01/11 00:41:04;;;;;;;45.90;23.85;;;;;;;-1.33;81.31;99011.38;5176753;22;20213;-85
2024/01/11 00:43:07;;;;;;;44.20;23.83;;;;;;;-1.37;80.91;99015.66;5202775;22;20183;-85
2024/01/11 00:45:11;;;;;;;51.97;23.52;;;;;;;-1.40;80.91;99007.16;5203857;22;20184;-85
2024/01/11 00:47:14;;;;;;;45.38;24.13;;;;;;;-1.42;80.72;99001.22;5178094;22;20218;-85
2024/01/11 00:49:16;;;;;;;43.65;24.70;;;;;;;-1.44;81.07;99000.38;5231626;22;20908;-85
2024/01/11 00:51:21;;;;;;;49.40;24.90;;;;;;;-1.42;81.17;99008.03;5201892;22;20168;-85
2024/01/11 00:53:24;;;;;;;44.28;23.83;;;;;;;-1.42;81.30;99008.88;5203295;22;20289;-85
2024/01/11 00:55:27;;;;;;;43.90;23.90;;;;;;;-1.36;81.39;99011.41;5202764;22;20176;-85
2024/01/11 00:57:30;;;;;;;52.75;24.15;;;;;;;-1.49;81.09;99003.81;5178897;22;20651;-84
2024/01/11 00:59:33;;;;;;;41.58;23.42;;;;;;;-1.52;80.75;99007.22;5176231;22;20219;-86
2024/01/11 01:01:36;;;;;;;47.00;23.17;;;;;;;-1.49;81.01;99011.50;5233055;22;20207;-85
2024/01/11 01:03:40;;;;;;;46.75;24.20;;;;;;;-1.54;81.55;99018.34;5202650;22;20227;-85
2024/01/11 01:05:43;;;;;;;45.05;24.67;;;;;;;-1.54;81.06;99020.91;5228229;22;20199;-85
2024/01/11 01:07:46;;;;;;;45.15;23.85;;;;;;;-1.56;80.95;99020.06;5233692;22;20175;-85
2024/01/11 01:09:50;;;;;;;44.30;24.25;;;;;;;-1.64;81.00;99009.03;5230397;22;20171;-85
2024/01/11 01:11:53;;;;;;;46.35;23.40;;;;;;;-1.59;81.08;99012.44;5203216;22;20263;-85
2024/01/11 01:13:56;;;;;;;46.03;22.55;;;;;;;-1.61;81.22;99016.69;5177777;22;20599;-85
2024/01/11 01:15:59;;;;;;;48.50;25.00;;;;;;;-1.62;81.51;99031.19;5230012;22;20172;-85
2024/01/11 01:18:05;;;;;;;52.45;24.25;;;;;;;-1.64;82.03;99032.03;5232791;22;20176;-85
2024/01/11 01:20:09;;;;;;;49.28;23.63;;;;;;;-1.67;81.40;99022.69;5231250;22;20294;-85
2024/01/11 01:22:12;;;;;;;44.75;23.30;;;;;;;-1.68;81.59;99028.66;5228925;22;20226;-85
2024/01/11 01:24:15;;;;;;;43.35;22.77;;;;;;;-1.70;81.33;99022.72;5177812;22;20176;-85
2024/01/11 01:26:19;;;;;;;46.17;23.10;;;;;;;-1.67;81.48;99032.91;5176985;22;20548;-85
2024/01/11 01:28:23;;;;;;;59.50;30.45;;;;;;;-1.66;81.84;99028.66;5203007;22;20180;-85
2024/01/11 01:30:26;;;;;;;48.42;26.65;;;;;;;-1.62;81.63;99030.34;5201429;22;21004;-86
2024/01/11 01:32:30;;;;;;;50.38;24.95;;;;;;;-1.60;81.62;99033.72;5229673;22;20206;-85
2024/01/11 01:34:35;;;;;;;47.58;23.48;;;;;;;-1.62;82.26;99038.00;5203241;22;20176;-86
2024/01/11 01:36:38;;;;;;;45.55;23.98;;;;;;;-1.60;82.08;99037.13;5229627;22;20270;-85
2024/01/11 01:38:40;;;;;;;47.45;24.70;;;;;;;-1.61;82.03;99032.88;5202763;22;20207;-85
2024/01/11 01:40:43;;;;;;;49.78;25.88;;;;;;;-1.57;81.68;99041.38;5202517;22;20186;-85
2024/01/11 01:42:46;;;;;;;45.20;24.52;;;;;;;-1.56;81.88;99046.47;5175443;22;20181;-85
2024/01/11 01:44:49;;;;;;;44.45;24.50;;;;;;;-1.58;81.97;99040.53;5203837;22;20247;-85
2024/01/11 01:46:53;;;;;;;46.92;24.08;;;;;;;-1.59;82.34;99040.53;5176332;22;20789;-85
2024/01/11 01:48:58;;;;;;;43.60;22.67;;;;;;;-1.58;82.38;99042.22;5203551;22;20227;-85
2024/01/11 01:51:03;;;;;;;50.28;28.65;;;;;;;-1.55;81.88;99043.03;5174352;22;20707;-85
2024/01/11 01:53:07;;;;;;;49.08;27.38;;;;;;;-1.51;81.68;99049.00;5231027;22;20175;-84
2024/01/11 01:55:11;;;;;;;44.10;24.67;;;;;;;-1.49;81.67;99048.13;5178140;22;20184;-85
2024/01/11 01:57:14;;;;;;;42.85;23.20;;;;;;;-1.50;81.52;99046.44;5181977;22;21090;-85
2024/01/11 01:59:19;;;;;;;40.75;23.48;;;;;;;-1.52;81.55;99057.53;5230579;22;20199;-86
2024/01/11 02:01:21;;;;;;;48.58;23.55;;;;;;;-1.58;81.40;99052.44;5229945;22;20183;-85
2024/01/11 02:03:29;;;;;;;46.90;24.40;;;;;;;-1.58;81.17;99052.44;5232723;22;20187;-85
2024/01/11 02:05:32;;;;;;;43.30;23.70;;;;;;;-1.60;80.91;99049.91;5229502;22;20175;-85
2024/01/11 02:07:36;;;;;;;44.75;23.08;;;;;;;-1.56;81.41;99055.88;5177561;22;20180;-85
2024/01/11 02:09:39;;;;;;;45.42;22.52;;;;;;;-1.52;80.91;99057.53;5228201;22;20993;-85
2024/01/11 02:11:42;;;;;;;46.00;23.50;;;;;;;-1.59;81.17;99058.44;5179171;22;20207;-85
2024/01/11 02:13:46;;;;;;;44.58;22.83;;;;;;;-1.67;81.09;99050.81;5202929;22;20176;-85
2024/01/11 02:15:49;;;;;;;43.17;23.20;;;;;;;-1.73;80.98;99044.84;5202291;22;20182;-86
2024/01/11 02:17:52;;;;;;;52.40;25.52;;;;;;;-1.80;80.65;99054.28;5202509;22;20207;-85
2024/01/11 02:19:54;;;;;;;43.22;22.48;;;;;;;-1.82;80.87;99056.00;5205429;22;20287;-85
2024/01/11 02:22:02;;;;;;;42.85;23.13;;;;;;;-1.86;81.35;99054.28;5205042;22;20287;-86
2024/01/11 02:24:07;;;;;;;44.67;22.73;;;;;;;-1.85;81.56;99055.13;5177965;22;20176;-86
2024/01/11 02:26:10;;;;;;;46.03;24.08;;;;;;;-1.87;81.92;99055.16;5232323;22;20167;-86
2024/01/11 02:28:13;;;;;;;46.33;23.05;;;;;;;-1.83;81.58;99053.44;5204499;22;20172;-86
2024/01/11 02:30:17;;;;;;;42.65;22.20;;;;;;;-1.85;81.93;99063.66;5203957;22;20176;-86
2024/01/11 02:32:21;;;;;;;44.50;21.90;;;;;;;-1.85;81.89;99057.69;5202510;22;20531;-86
2024/01/11 02:34:25;;;;;;;41.80;22.70;;;;;;;-1.90;81.19;99049.22;5233646;22;20198;-86
2024/01/11 02:36:27;;;;;;;45.92;22.27;;;;;;;-1.96;81.05;99048.41;5204114;22;20255;-86
2024/01/11 02:38:30;;;;;;;45.42;22.10;;;;;;;-1.96;81.34;99044.13;5230086;22;20507;-86
2024/01/11 02:40:35;;;;;;;46.53;22.30;;;;;;;-1.98;81.69;99040.75;5178160;22;20228;-86
2024/01/11 02:42:38;;;;;;;47.30;23.42;;;;;;;-1.97;82.18;99046.69;5203429;22;20169;-86
2024/01/11 02:44:41;;;;;;;42.67;22.00;;;;;;;-1.93;81.91;99043.28;5203559;22;20279;-86
2024/01/11 02:46:43;;;;;;;45.08;23.02;;;;;;;-1.91;82.26;99044.94;5233850;22;20481;-86
2024/01/11 02:48:47;;;;;;;46.15;23.67;;;;;;;-1.90;82.19;99044.09;5230083;22;20175;-86
2024/01/11 02:50:50;;;;;;;44.30;24.50;;;;;;;-1.85;82.11;99053.44;5180738;22;20185;-86
2024/01/11 02:52:53;;;;;;;41.67;22.45;;;;;;;-1.87;82.07;99044.09;5227892;22;20533;-86
2024/01/11 02:54:56;;;;;;;43.33;22.92;;;;;;;-1.91;81.75;99046.66;5202433;22;20526;-86
2024/01/11 02:57:01;;;;;;;42.33;22.25;;;;;;;-1.93;81.61;99044.09;5203651;22;20196;-86
2024/01/11 02:59:04;;;;;;;47.92;23.17;;;;;;;-1.96;81.58;99041.56;5229891;22;20203;-86
2024/01/11 03:01:06;;;;;;;43.33;21.35;;;;;;;-1.92;81.07;99047.50;5203246;22;20654;-86
2024/01/11 03:03:09;;;;;;;45.67;23.80;;;;;;;-1.97;81.77;99041.56;5201796;22;20230;-86
2024/01/11 03:05:13;;;;;;;46.88;22.48;;;;;;;-1.98;81.58;99045.84;5234480;22;20634;-86
2024/01/11 03:07:16;;;;;;;42.28;22.73;;;;;;;-1.99;82.19;99046.69;5230330;22;20183;-86
2024/01/11 03:09:19;;;;;;;40.08;21.55;;;;;;;-2.00;81.17;99036.47;5207612;22;20171;-86
2024/01/11 03:11:21;;;;;;;44.47;21.00;;;;;;;-2.08;81.23;99033.97;5213265;22;20262;-86
2024/01/11 03:13:26;;;;;;;42.92;21.73;;;;;;;-2.11;81.66;99033.97;5212950;22;20175;-86
2024/01/11 03:15:31;;;;;;;42.03;22.50;;;;;;;-2.11;82.11;99041.63;5212517;22;20756;-86
2024/01/11 03:17:35;;;;;;;46.78;23.05;;;;;;;-2.13;82.23;99035.69;5213786;22;20863;-86
2024/01/11 03:19:41;;;;;;;43.63;22.65;;;;;;;-2.14;81.99;99039.09;5187804;22;20184;-86
2024/01/11 03:21:44;;;;;;;43.20;22.95;;;;;;;-2.21;81.17;99024.66;5240399;22;20609;-86
2024/01/11 03:23:47;;;;;;;49.40;23.02;;;;;;;-2.27;81.84;99027.25;5210963;22;20206;-86
2024/01/11 03:25:51;;;;;;;40.78;22.17;;;;;;;-2.26;81.99;99025.53;5201128;22;20673;-86
2024/01/11 03:27:54;;;;;;;44.20;21.48;;;;;;;-2.21;82.20;99027.22;5177085;22;20181;-87
2024/01/11 03:29:58;;;;;;;46.70;22.40;;;;;;;-2.16;82.11;99030.59;5203184;22;20180;-86
2024/01/11 03:32:01;;;;;;;44.22;23.00;;;;;;;-2.16;82.39;99028.03;5177026;22;20173;-86
2024/01/11 03:34:04;;;;;;;45.67;23.42;;;;;;;-2.12;82.24;99027.19;5202422;22;20172;-87
2024/01/11 03:36:08;;;;;;;37.25;21.67;;;;;;;-2.15;82.29;99022.09;5204465;22;20703;-87
2024/01/11 03:38:11;;;;;;;48.45;23.02;;;;;;;-2.17;81.31;99030.59;5203897;22;20278;-87
2024/01/11 03:40:15;;;;;;;45.65;24.52;;;;;;;-2.20;81.08;99022.94;5229895;22;20195;-87
2024/01/11 03:42:18;;;;;;;47.40;24.77;;;;;;;-2.21;80.92;99027.22;5204492;22;20199;-86
2024/01/11 03:44:21;;;;;;;41.38;22.45;;;;;;;-2.22;81.49;99033.16;5203018;22;20263;-86
2024/01/11 03:46:25;;;;;;;49.00;24.02;;;;;;;-2.23;81.86;99031.47;5229147;22;20182;-87
2024/01/11 03:48:28;;;;;;;45.97;22.40;;;;;;;-2.24;81.83;99031.47;5204308;22;20180;-86
2024/01/11 03:50:30;;;;;;;44.13;22.52;;;;;;;-2.25;81.45;99033.19;5202975;22;20210;-86
2024/01/11 03:52:34;;;;;;;41.83;21.73;;;;;;;-2.29;80.88;99026.38;5204758;22;20207;-87
2024/01/11 03:54:37;;;;;;;46.30;23.85;;;;;;;-2.29;81.04;99023.81;5177994;22;20632;-86
2024/01/11 03:56:40;;;;;;;41.00;21.08;;;;;;;-2.34;81.71;99020.44;5231285;22;20202;-86
2024/01/11 03:58:44;;;;;;;42.40;22.08;;;;;;;-2.34;81.31;99020.44;5205173;22;20289;-86
2024/01/11 04:00:48;;;;;;;43.92;22.80;;;;;;;-2.33;81.50;99019.59;5230949;22;20256;-86
2024/01/11 04:02:53;;;;;;;45.90;24.58;;;;;;;-2.26;82.52;99017.84;5203993;22;20176;-86
2024/01/11 04:04:56;;;;;;;42.95;23.88;;;;;;;-2.23;83.26;99021.25;5179615;22;20188;-86
2024/01/11 04:06:58;;;;;;;45.58;23.58;;;;;;;-2.15;83.53;99026.31;5207807;22;20267;-86
2024/01/11 04:09:02;;;;;;;46.35;23.70;;;;;;;-2.07;83.63;99030.56;5178057;22;20266;-86
2024/01/11 04:11:04;;;;;;;45.92;23.23;;;;;;;-1.97;83.25;99036.47;5204001;22;20176;-86
2024/01/11 04:13:08;;;;;;;46.13;23.17;;;;;;;-2.02;82.69;99033.94;5232204;22;20177;-87
2024/01/11 04:15:13;;;;;;;42.72;22.30;;;;;;;-2.07;82.54;99030.56;5204294;22;20259;-87
2024/01/11 04:17:16;;;;;;;47.08;22.80;;;;;;;-2.10;82.56;99022.91;5230270;22;20214;-86
2024/01/11 04:19:20;;;;;;;50.60;23.95;;;;;;;-2.10;82.58;99027.19;5232579;22;20201;-86
2024/01/11 04:21:28;;;;;;;46.40;24.08;;;;;;;-2.14;82.61;99023.75;5203895;22;20208;-87
2024/01/11 04:23:32;;;;;;;40.42;22.35;;;;;;;-2.13;82.56;99024.63;5209688;22;20854;-86
2024/01/11 04:25:36;;;;;;;44.70;22.80;;;;;;;-2.12;82.49;99018.66;5179555;22;20254;-86
2024/01/11 04:27:39;;;;;;;46.80;24.48;;;;;;;-2.11;82.66;99026.31;5178720;22;20204;-86
2024/01/11 04:29:47;;;;;;;48.15;23.50;;;;;;;-2.14;82.45;99013.53;5203860;22;20262;-86
2024/01/11 04:31:50;;;;;;;46.85;22.15;;;;;;;-2.11;82.08;99016.09;5178406;22;20662;-86
2024/01/11 04:33:52;;;;;;;47.70;24.55;;;;;;;-2.12;82.04;99021.19;5231174;22;20627;-86
2024/01/11 04:35:57;;;;;;;50.15;24.40;;;;;;;-2.10;81.69;99019.50;5203275;22;20266;-86
2024/01/11 04:38:00;;;;;;;43.40;23.55;;;;;;;-2.10;81.90;99017.81;5207687;22;20649;-86
2024/01/11 04:40:05;;;;;;;45.08;22.52;;;;;;;-2.08;82.00;99020.34;5203947;22;20259;-87
2024/01/11 04:42:08;;;;;;;43.85;21.90;;;;;;;-2.14;81.21;99017.81;5231597;22;20204;-86
2024/01/11 04:44:11;;;;;;;47.00;23.45;;;;;;;-2.15;81.10;99019.53;5178168;22;20280;-86
2024/01/11 04:46:14;;;;;;;41.83;21.05;;;;;;;-2.20;81.48;99011.03;5204299;22;20169;-86
2024/01/11 04:48:18;;;;;;;46.50;22.60;;;;;;;-2.17;81.66;99017.81;5177637;22;20603;-86
2024/01/11 04:50:21;;;;;;;43.88;22.00;;;;;;;-2.12;81.64;99021.19;5205487;22;20850;-86
2024/01/11 04:52:26;;;;;;;41.28;23.17;;;;;;;-2.12;81.29;99024.63;5203122;22;20858;-86
2024/01/11 04:54:29;;;;;;;41.90;21.45;;;;;;;-2.12;81.24;99024.63;5206621;22;20180;-86
2024/01/11 04:56:34;;;;;;;42.15;22.35;;;;;;;-2.20;81.36;99021.22;5229647;22;20508;-86
2024/01/11 04:58:37;;;;;;;52.88;22.70;;;;;;;-2.30;80.09;99024.69;5231595;22;20179;-86
2024/01/11 05:00:41;;;;;;;44.20;23.20;;;;;;;-2.36;80.21;99028.97;5230194;22;20178;-86
2024/01/11 05:02:44;;;;;;;42.78;22.00;;;;;;;-2.39;80.03;99023.00;5202469;22;20176;-86
2024/01/11 05:04:48;;;;;;;39.05;21.90;;;;;;;-2.40;80.51;99023.88;5204283;22;20203;-86
2024/01/11 05:06:52;;;;;;;46.95;23.48;;;;;;;-2.39;80.47;99025.56;5230397;22;20921;-86
2024/01/11 05:08:57;;;;;;;44.92;22.70;;;;;;;-2.40;80.95;99023.88;5205637;22;20259;-86
2024/01/11 05:11:00;;;;;;;47.00;23.48;;;;;;;-2.34;81.31;99028.09;5202829;22;20699;-86
2024/01/11 05:13:03;;;;;;;44.20;23.38;;;;;;;-2.31;81.46;99030.63;5204624;22;20176;-86
2024/01/11 05:15:07;;;;;;;44.58;23.30;;;;;;;-2.29;81.48;99034.03;5203474;22;20172;-86
2024/01/11 05:17:11;;;;;;;43.28;23.63;;;;;;;-2.32;81.48;99033.19;5202256;22;20225;-86
2024/01/11 05:19:14;;;;;;;45.83;23.05;;;;;;;-2.33;81.51;99032.38;5177340;22;20212;-86
2024/01/11 05:21:17;;;;;;;44.95;23.17;;;;;;;-2.32;81.87;99033.19;5229689;22;20201;-86
2024/01/11 05:23:20;;;;;;;50.35;24.35;;;;;;;-2.26;81.81;99030.63;5178488;22;20834;-86
2024/01/11 05:25:24;;;;;;;42.72;23.80;;;;;;;-2.24;81.65;99034.00;5232922;22;20297;-86
2024/01/11 05:27:27;;;;;;;44.47;22.38;;;;;;;-2.28;81.43;99040.84;5204657;22;20180;-86
2024/01/11 05:29:31;;;;;;;48.08;24.13;;;;;;;-2.31;81.57;99043.41;5203358;22;20187;-86
2024/01/11 05:31:35;;;;;;;46.85;23.60;;;;;;;-2.29;81.56;99041.69;5177143;22;20280;-86
2024/01/11 05:33:38;;;;;;;42.25;22.27;;;;;;;-2.34;81.83;99040.88;5202440;22;20962;-86
2024/01/11 05:35:42;;;;;;;42.10;22.45;;;;;;;-2.35;81.53;99035.75;5203441;22;20273;-86
2024/01/11 05:37:45;;;;;;;45.47;23.65;;;;;;;-2.33;81.29;99037.47;5231635;22;20179;-86
2024/01/11 05:39:48;;;;;;;43.03;22.63;;;;;;;-2.34;81.40;99042.56;5179869;22;20679;-85
2024/01/11 05:41:53;;;;;;;43.60;22.63;;;;;;;-2.37;81.60;99059.63;5203039;22;20203;-86
2024/01/11 05:43:56;;;;;;;42.92;22.95;;;;;;;-2.34;81.60;99067.28;5232831;22;20356;-85
2024/01/11 05:45:58;;;;;;;47.17;23.40;;;;;;;-2.43;81.14;99068.13;5230178;22;20179;-85
2024/01/11 05:48:01;;;;;;;42.40;23.08;;;;;;;-2.49;80.67;99069.84;5226429;22;20179;-86
2024/01/11 05:50:05;;;;;;;43.42;22.33;;;;;;;-2.52;80.82;99067.31;5203073;22;20186;-85
2024/01/11 05:52:08;;;;;;;46.00;24.15;;;;;;;-2.52;81.23;99067.31;5201068;22;20181;-87
2024/01/11 05:54:11;;;;;;;43.30;23.50;;;;;;;-2.53;81.72;99068.97;5178832;22;20226;-86
2024/01/11 05:56:15;;;;;;;42.15;22.10;;;;;;;-2.56;81.57;99069.00;5182175;22;20195;-86
2024/01/11 05:58:19;;;;;;;48.05;23.65;;;;;;;-2.57;81.70;99081.75;5203510;22;21209;-86
2024/01/11 06:00:22;;;;;;;47.90;23.77;;;;;;;-2.57;81.40;99085.19;5202593;22;20172;-87
2024/01/11 06:02:25;;;;;;;43.10;23.70;;;;;;;-2.53;81.68;99089.41;5201981;22;20679;-85
2024/01/11 06:04:29;;;;;;;47.50;23.10;;;;;;;-2.52;81.45;99082.63;5178435;22;20181;-86
2024/01/11 06:06:33;;;;;;;46.47;24.05;;;;;;;-2.53;81.96;99074.09;5203093;22;20278;-86
2024/01/11 06:08:36;;;;;;;41.95;22.90;;;;;;;-2.56;81.77;99073.25;5235682;22;20205;-85
2024/01/11 06:10:40;;;;;;;47.50;24.00;;;;;;;-2.60;82.06;99069.00;5187085;22;20478;-86
2024/01/11 06:12:43;;;;;;;43.35;24.25;;;;;;;-2.55;81.72;99069.88;5184803;22;20169;-85
2024/01/11 06:14:48;;;;;;;42.40;21.90;;;;;;;-2.49;81.54;99074.97;5214192;22;20179;-86
2024/01/11 06:16:51;;;;;;;43.42;22.55;;;;;;;-2.53;81.78;99070.69;5229296;22;20187;-85
2024/01/11 06:18:54;;;;;;;50.47;24.88;;;;;;;-2.50;81.64;99073.25;5205482;22;20254;-85
2024/01/11 06:20:58;;;;;;;44.45;22.67;;;;;;;-2.56;82.08;99074.09;5180311;22;20275;-85
2024/01/11 06:23:01;;;;;;;48.53;27.33;;;;;;;-2.62;81.86;99074.09;5179330;22;20200;-85
2024/01/11 06:25:05;;;;;;;52.42;25.60;;;;;;;-2.61;81.56;99073.25;5213266;22;20705;-85
2024/01/11 06:27:08;;;;;;;44.40;23.58;;;;;;;-2.66;81.21;99066.44;5212229;22;20190;-85
2024/01/11 06:29:11;;;;;;;47.38;22.77;;;;;;;-2.65;80.85;99057.97;5239433;22;20253;-85
2024/01/11 06:31:16;;;;;;;47.90;24.33;;;;;;;-2.65;81.10;99057.97;5185212;22;20637;-85
2024/01/11 06:33:20;;;;;;;45.03;22.17;;;;;;;-2.70;81.65;99055.41;5184713;22;20176;-85
2024/01/11 06:35:22;;;;;;;43.38;23.17;;;;;;;-2.68;82.03;99050.31;5212988;22;20176;-85
2024/01/11 06:37:25;;;;;;;48.85;23.70;;;;;;;-2.67;81.63;99065.63;5240870;22;20182;-85
2024/01/11 06:39:29;;;;;;;44.60;24.00;;;;;;;-2.63;81.70;99076.66;5240649;22;20171;-85
2024/01/11 06:41:32;;;;;;;46.58;24.13;;;;;;;-2.65;81.71;99074.09;5240823;22;20217;-85
2024/01/11 06:43:36;;;;;;;42.47;23.00;;;;;;;-2.73;81.47;99064.78;5213278;22;20176;-85
2024/01/11 06:45:40;;;;;;;47.35;22.15;;;;;;;-2.77;82.03;99069.03;5213164;22;20380;-85
2024/01/11 06:47:45;;;;;;;45.25;23.17;;;;;;;-2.70;81.22;99080.94;5213741;22;20507;-85
2024/01/11 06:49:49;;;;;;;46.78;23.58;;;;;;;-2.73;80.91;99082.63;5178691;22;20242;-85
2024/01/11 06:51:52;;;;;;;43.15;22.08;;;;;;;-2.75;81.97;99086.91;5226167;22;20602;-85
2024/01/11 06:53:54;;;;;;;45.03;22.35;;;;;;;-2.74;81.86;99096.22;5204349;22;20229;-85
2024/01/11 06:55:57;;;;;;;45.40;24.05;;;;;;;-2.77;81.54;99099.66;5230270;22;20186;-85
2024/01/11 06:58:01;;;;;;;47.33;23.67;;;;;;;-2.81;81.25;99099.66;5204506;22;20181;-85
2024/01/11 07:00:07;;;;;;;44.33;24.00;;;;;;;-2.81;81.45;99107.31;5229026;22;20573;-85
2024/01/11 07:02:10;;;;;;;44.17;24.20;;;;;;;-2.81;81.58;99103.06;5201503;22;20679;-85
2024/01/11 07:04:15;;;;;;;44.75;22.27;;;;;;;-2.84;81.64;99096.25;5202744;22;20238;-85
2024/01/11 07:06:18;;;;;;;44.47;23.25;;;;;;;-2.87;81.05;99102.22;5202215;22;20176;-85
2024/01/11 07:08:21;;;;;;;48.30;23.63;;;;;;;-2.88;81.24;99102.22;5229872;22;20228;-85
2024/01/11 07:10:25;;;;;;;38.28;21.23;;;;;;;-2.87;81.44;99101.34;5201449;22;20604;-85
2024/01/11 07:12:28;;;;;;;42.60;23.25;;;;;;;-2.84;81.45;99117.53;5204454;22;20226;-85
2024/01/11 07:14:31;;;;;;;48.65;25.17;;;;;;;-2.84;81.16;99112.41;5202750;22;20647;-85
2024/01/11 07:16:35;;;;;;;52.10;24.55;;;;;;;-2.80;81.50;99119.19;5203391;22;20180;-85
2024/01/11 07:18:38;;;;;;;47.00;23.70;;;;;;;-2.76;81.75;99111.53;5202856;22;20230;-85
2024/01/11 07:20:42;;;;;;;90.57;38.47;;;;;;;-2.74;81.61;99107.31;5177423;22;20628;-85
2024/01/11 07:22:48;;;;;;;182.40;67.55;;;;;;;-2.77;81.32;99103.88;5203147;22;20220;-85
2024/01/11 07:24:51;;;;;;;58.70;30.13;;;;;;;-2.83;80.64;99119.19;5202025;22;20900;-85
2024/01/11 07:26:54;;;;;;;87.53;37.20;;;;;;;-2.84;80.41;99122.63;5180512;22;20223;-85
2024/01/11 07:28:58;;;;;;;66.40;29.20;;;;;;;-2.88;80.87;99118.34;5203915;22;20176;-85
2024/01/11 07:31:01;;;;;;;73.07;32.13;;;;;;;-2.92;80.06;99108.16;5203711;22;20176;-85
2024/01/11 07:33:04;;;;;;;80.43;33.63;;;;;;;-2.92;80.21;99115.81;5178160;22;20184;-85
2024/01/11 07:35:10;;;;;;;109.70;49.75;;;;;;;-2.88;80.43;99123.47;5205586;22;20176;-85
2024/01/11 07:37:20;;;;;;;61.38;30.92;;;;;;;-2.85;80.83;99135.38;5186252;22;20486;-85
2024/01/11 07:39:24;;;;;;;56.70;30.65;;;;;;;-2.89;81.54;99139.59;5215200;22;20224;-84
2024/01/11 07:41:27;;;;;;;61.90;28.40;;;;;;;-2.89;80.56;99148.97;5213787;22;20223;-85
2024/01/11 07:43:34;;;;;;;48.65;26.85;;;;;;;-2.89;80.30;99162.56;5214038;22;20406;-84
2024/01/11 07:45:51;;;;;;;55.50;25.80;;;;;;;-2.90;80.23;99148.13;5213054;22;20179;-86
2024/01/11 07:47:54;;;;;;;53.15;27.15;;;;;;;-2.95;79.90;99151.50;5188078;22;20187;-85
2024/01/11 07:49:56;;;;;;;53.30;26.63;;;;;;;-2.95;79.91;99142.16;5214087;22;20176;-84
2024/01/11 07:51:59;;;;;;;54.10;25.55;;;;;;;-2.84;80.42;99143.03;5213589;22;20176;-85
2024/01/11 07:54:04;;;;;;;46.13;25.80;;;;;;;-2.70;80.48;99148.97;5238487;22;20171;-85
2024/01/11 07:56:08;;;;;;;49.40;24.05;;;;;;;-2.60;80.95;99161.75;5213573;22;20184;-85
2024/01/11 07:58:12;;;;;;;47.75;26.45;;;;;;;-2.50;81.21;99172.78;5213576;22;20740;-85
2024/01/11 08:00:16;;;;;;;49.17;26.30;;;;;;;-2.41;81.38;99177.91;5214214;22;20577;-85
2024/01/11 08:02:19;;;;;;;48.25;26.00;;;;;;;-2.30;80.95;99185.53;5241462;22;20167;-85
2024/01/11 08:04:25;;;;;;;46.55;26.17;;;;;;;-2.14;81.09;99184.66;5189183;22;20626;-85
2024/01/11 08:06:29;;;;;;;49.05;25.20;;;;;;;-2.02;80.31;99191.47;5214533;22;20228;-85
2024/01/11 08:08:32;;;;;;;51.88;25.38;;;;;;;-1.91;80.28;99187.19;5188185;22;20185;-85
2024/01/11 08:10:37;;;;;;;49.63;28.10;;;;;;;-1.83;79.99;99197.38;5240934;22;20186;-85
2024/01/11 08:12:40;;;;;;;44.17;23.77;;;;;;;-1.70;80.10;99196.50;5240504;22;20207;-85
2024/01/11 08:14:44;;;;;;;50.38;26.40;;;;;;;-1.59;80.73;99196.47;5240592;22;20267;-85
2024/01/11 08:16:50;;;;;;;53.85;27.25;;;;;;;-1.49;79.85;99203.25;5214375;22;20178;-85
2024/01/11 08:18:54;;;;;;;58.90;29.50;;;;;;;-1.35;79.89;99204.91;5241883;22;20182;-85
2024/01/11 08:20:57;;;;;;;44.97;26.05;;;;;;;-1.22;80.15;99206.53;5188730;22;20243;-85
2024/01/11 08:23:01;;;;;;;50.78;25.67;;;;;;;-1.08;80.06;99205.63;5240853;22;20647;-85
2024/01/11 08:25:04;;;;;;;59.22;28.30;;;;;;;-1.00;79.21;99213.25;5213936;22;20207;-85
2024/01/11 08:27:09;;;;;;;50.42;25.20;;;;;;;-0.91;78.63;99219.16;5213688;22;20180;-85
2024/01/11 08:29:14;;;;;;;52.75;27.65;;;;;;;-0.80;79.00;99223.38;5215067;22;20206;-85
2024/01/11 08:31:16;;;;;;;51.17;26.52;;;;;;;-0.70;78.79;99225.00;5188581;22;20176;-85
2024/01/11 08:33:19;;;;;;;43.97;25.02;;;;;;;-0.63;77.82;99225.81;5241052;22;20168;-85
2024/01/11 08:35:23;;;;;;;42.28;24.88;;;;;;;-0.57;77.88;99230.88;5239860;22;20278;-90
2024/01/11 08:37:25;;;;;;;49.00;27.35;;;;;;;-0.47;77.51;99227.41;5241622;22;20175;-86
2024/01/11 08:39:28;;;;;;;52.38;33.25;;;;;;;-0.45;77.49;99227.41;5240472;22;20176;-85
2024/01/11 08:41:31;;;;;;;47.15;26.33;;;;;;;-0.33;77.67;99221.31;5238541;22;20178;-85
2024/01/11 08:43:36;;;;;;;54.78;32.53;;;;;;;-0.25;77.62;99220.41;5213936;22;20684;-85
2024/01/11 08:45:39;;;;;;;54.00;27.92;;;;;;;-0.17;77.26;99228.03;5214372;22;20271;-85
2024/01/11 08:47:43;;;;;;;51.92;27.20;;;;;;;-0.09;77.65;99231.38;5214781;22;20183;-87
2024/01/11 08:49:45;;;;;;;60.50;31.17;;;;;;;-0.02;77.46;99236.44;5190010;22;20173;-87
2024/01/11 08:51:48;;;;;;;51.85;29.60;;;;;;;0.02;76.36;99235.56;5188067;22;20200;-86
2024/01/11 08:53:52;;;;;;;45.88;28.42;;;;;;;0.01;75.73;99244.09;5213514;22;20639;-86
2024/01/11 08:55:56;;;;;;;47.45;26.98;;;;;;;0.01;76.24;99246.66;5241087;22;20599;-85
2024/01/11 08:57:59;;;;;;;55.25;28.88;;;;;;;0.10;76.37;99239.72;5214187;22;20176;-86
2024/01/11 09:00:06;;;;;;;50.30;27.58;;;;;;;0.15;76.12;99234.56;5188656;22;20240;-86
2024/01/11 09:02:10;;;;;;;46.70;27.67;;;;;;;0.23;76.19;99231.06;5213062;22;20223;-87
2024/01/11 09:04:21;;;;;;;73.32;32.90;;;;;;;0.26;76.33;99237.91;5216423;22;20192;-88
2024/01/11 09:06:24;;;;;;;56.35;29.67;;;;;;;0.36;76.20;99237.78;5242411;22;20658;-87
2024/01/11 09:08:27;;;;;;;60.95;29.70;;;;;;;0.49;76.02;99247.88;5187742;22;20181;-88
2024/01/11 09:10:31;;;;;;;52.40;28.13;;;;;;;0.61;76.31;99249.47;5215348;22;20176;-88
2024/01/11 09:12:35;;;;;;;51.67;27.17;;;;;;;0.67;75.65;99250.25;5240506;22;20690;-87
2024/01/11 09:14:37;;;;;;;49.30;28.15;;;;;;;0.75;75.39;99250.16;5188695;22;20173;-87
2024/01/11 09:16:41;;;;;;;45.97;29.38;;;;;;;0.81;75.62;99250.94;5214620;22;20265;-88
2024/01/11 09:18:45;;;;;;;48.30;27.67;;;;;;;0.91;76.02;99254.25;5217321;22;20507;-87
2024/01/11 09:20:49;;;;;;;53.20;30.17;;;;;;;0.98;75.86;99241.34;5215559;22;20216;-88
2024/01/11 09:22:53;;;;;;;52.58;27.90;;;;;;;1.01;75.28;99251.56;5241018;22;20175;-88
2024/01/11 09:24:56;;;;;;;45.95;26.23;;;;;;;1.05;75.13;99240.38;5215495;22;20291;-88
2024/01/11 09:26:58;;;;;;;49.85;26.80;;;;;;;1.15;75.34;99241.97;5215703;22;20239;-88
2024/01/11 09:29:02;;;;;;;48.05;27.33;;;;;;;1.25;74.79;99248.66;5190657;22;20552;-88